Latest Weather Observations for Parafield

IDS60901

Issued at 3:01 am CST Sunday 30 April 2017 (issued every 10 minutes, with the page automatically refreshed every 10 minutes)

About weather observations | Map of Adelaide area stations | Latest observations for Adelaide area | Other Formats
Station Details ID: 023013 Name: PARAFIELD AIRPORT Lat: -34.80 Lon: 138.63 Height: 9.5 m
Data from the previous 72 hours. | See also: Recent months at Parafield
Date/Time
CST
Temp
°C
App
Temp
°C
Dew
Point
°C
Rel
Hum
%
Delta-T
°C
Wind Press
QNH
hPa
Press
MSL
hPa
Rain since
9am
mm
Dir  Spd
km/h
Gust
km/h
Spd
kts
Gust
kts
30/03:00am 15.6 14.1 12.0 79 1.9 NNE 11 15 6 8 1023.0 1022.9 0.0
30/02:30am 15.7 14.4 10.0 69 3.0 ENE 7 13 4 7 1023.1 1023.0 0.0
30/02:00am 16.4 15.8 10.3 67 3.2 ENE 4 11 2 6 1023.4 1023.3 0.0
30/01:30am 15.5 14.7 11.7 78 2.0 NE 7 11 4 6 1023.5 1023.4 0.0
30/01:00am 15.3 16.3 13.3 88 1.1 CALM 0 0 0 0 1023.7 1023.6 0.0
30/12:30am 15.5 16.2 13.5 88 1.1 NE 2 7 1 4 1023.8 1023.7 0.0
30/12:00am 15.2 15.0 12.9 86 1.3 NE 6 7 3 4 1024.0 1023.9 0.0
 
Date/Time
CST
Temp
°C
App
Temp
°C
Dew
Point
°C
Rel
Hum
%
Delta-T
°C
Wind Press
QNH
hPa
Press
MSL
hPa
Rain since
9am
mm
Dir  Spd
km/h
Gust
km/h
Spd
kts
Gust
kts
29/11:30pm 15.6 15.5 13.3 86 1.3 NE 6 7 3 4 1024.3 1024.2 0.0
29/11:00pm 15.5 16.5 13.2 86 1.3 CALM 0 0 0 0 1024.4 1024.3 0.0
29/10:30pm 15.6 16.6 13.1 85 1.4 CALM 0 0 0 0 1024.7 1024.6 0.0
29/10:00pm 15.3 15.7 12.4 83 1.6 E 2 6 1 3 1024.8 1024.7 0.0
29/09:30pm 15.4 15.9 13.9 91 0.8 ESE 4 6 2 3 1024.9 1024.8 0.0
29/09:00pm 15.4 15.7 13.4 88 1.1 E 4 7 2 4 1024.9 1024.8 0.0
29/08:30pm 15.5 16.7 13.7 89 1.0 CALM 0 0 0 0 1025.0 1024.9 0.0
29/08:00pm 15.4 16.4 13.2 87 1.2 CALM 0 0 0 0 1024.9 1024.8 0.0
29/07:30pm 15.5 16.4 13.0 85 1.4 CALM 0 0 0 0 1025.1 1025.0 0.0
29/07:00pm 15.8 16.5 13.5 86 1.3 N 2 6 1 3 1025.1 1025.0 0.0
29/06:30pm 15.8 15.3 12.0 78 2.1 N 6 6 3 3 1024.9 1024.8 0.0
29/06:00pm 16.1 15.7 12.3 78 2.1 N 6 7 3 4 1024.7 1024.6 0.0
29/05:30pm 16.4 16.2 11.8 74 2.5 WNW 4 6 2 3 1024.7 1024.6 0.0
29/05:00pm 16.6 15.9 11.5 72 2.8 WNW 6 7 3 4 1024.7 1024.6 0.0
29/04:30pm 16.6 15.6 11.1 70 2.9 WNW 7 9 4 5 1024.7 1024.6 0.0
29/04:00pm 16.8 15.8 10.9 68 3.2 WNW 7 9 4 5 1024.7 1024.6 0.0
29/03:30pm 16.9 15.5 11.0 68 3.2 WNW 9 13 5 7 1024.8 1024.7 0.0
29/03:00pm 17.0 14.7 10.6 66 3.4 WNW 13 15 7 8 1024.9 1024.8 0.0
29/02:30pm 17.0 15.3 11.1 68 3.2 W 11 15 6 8 1024.9 1024.8 0.0
29/02:00pm 16.9 15.6 11.2 69 3.1 W 9 11 5 6 1025.0 1024.9 0.0
29/01:30pm 17.1 14.9 10.9 67 3.3 WNW 13 15 7 8 1025.0 1024.9 0.0
29/01:00pm 17.4 16.4 11.0 66 3.4 N 7 9 4 5 1025.4 1025.3 0.0
29/12:30pm 17.6 16.5 10.7 64 3.7 NW 7 9 4 5 1025.8 1025.7 0.0
29/12:00pm 17.6 17.4 10.5 63 3.8 WNW 2 7 1 4 1026.4 1026.3 0.0
29/11:30am 17.5 17.1 11.1 66 3.4 NNE 4 9 2 5 1026.7 1026.6 0.0
29/11:00am 17.2 17.2 12.5 74 2.6 N 4 7 2 4 1027.1 1027.0 0.0
29/10:30am 16.1 15.6 12.5 79 2.0 NNE 7 9 4 5 1027.2 1027.1 0.0
29/10:00am 15.7 15.2 12.5 81 1.8 NNE 7 9 4 5 1027.2 1027.1 0.0
29/09:30am 15.4 15.1 13.2 87 1.2 NE 7 11 4 6 1027.2 1027.1 0.0
29/09:00am 14.9 14.8 13.9 94 0.6 NE 7 9 4 5 1027.0 1026.9 0.6
29/08:30am 14.5 14.1 14.0 97 0.3 NE 9 9 5 5 1026.9 1026.8 0.6
29/08:00am 14.4 15.4 14.4 100 0.0 NNW 2 6 1 3 1026.7 1026.6 0.6
29/07:30am 14.0 13.6 14.0 100 0.0 N 9 9 5 5 1026.4 1026.3 0.6
29/07:00am 13.8 14.2 13.8 100 0.0 N 4 13 2 7 1026.1 1026.0 0.6
29/06:30am 13.7 13.2 13.7 100 0.0 NE 9 9 5 5 1025.9 1025.8 0.6
29/06:00am 13.6 13.6 13.6 100 0.0 E 6 7 3 4 1025.7 1025.6 0.6
29/05:30am 13.6 13.6 13.6 100 0.0 N 6 7 3 4 1025.6 1025.5 0.6
29/05:00am 13.5 13.3 13.5 100 0.0 N 7 9 4 5 1025.4 1025.3 0.6
29/04:30am 13.6 14.0 13.6 100 0.0 E 4 7 2 4 1025.4 1025.3 0.6
29/04:00am 13.4 14.5 13.4 100 0.0 CALM 0 0 0 0 1025.4 1025.3 0.6
29/03:30am 13.5 13.3 13.5 100 0.0 SE 7 9 4 5 1025.4 1025.3 0.6
29/03:00am 13.6 13.4 13.6 100 0.0 SE 7 7 4 4 1025.6 1025.5 0.6
29/02:30am 13.7 12.8 13.7 100 0.0 SE 11 13 6 7 1025.7 1025.6 0.6
29/02:04am 13.8 13.3 13.8 100 0.0 SSE 9 13 5 7 1026.0 1025.9 0.6
29/02:00am 13.9 13.4 13.9 100 0.0 SSE 9 11 5 6 1026.0 1025.9 0.6
29/01:43am 14.0 13.9 14.0 100 0.0 SSE 7 9 4 5 1026.0 1025.9 0.6
29/01:30am 13.9 13.8 13.9 100 0.0 SE 7 9 4 5 1026.0 1025.9 0.6
29/01:00am 13.9 13.4 13.9 100 0.0 SE 9 11 5 6 1026.0 1025.9 0.6
29/12:30am 14.1 13.7 14.1 100 0.0 S 9 11 5 6 1026.2 1026.1 0.6
29/12:00am 14.3 13.1 14.0 98 0.2 SSE 13 15 7 8 1026.3 1026.2 0.6
 
Date/Time
CST
Temp
°C
App
Temp
°C
Dew
Point
°C
Rel
Hum
%
Delta-T
°C
Wind Press
QNH
hPa
Press
MSL
hPa
Rain since
9am
mm
Dir  Spd
km/h
Gust
km/h
Spd
kts
Gust
kts
28/11:30pm 14.1 14.3 14.1 100 0.0 SSW 6 7 3 4 1026.6 1026.5 0.6
28/11:00pm 14.2 14.8 14.2 100 0.0 NE 4 7 2 4 1026.7 1026.6 0.6
28/10:30pm 14.3 13.6 14.3 100 0.0 E 11 11 6 6 1026.8 1026.7 0.6
28/10:04pm 14.5 15.0 14.0 97 0.3 SE 4 7 2 4 1027.1 1027.0 0.6
28/10:00pm 14.5 15.4 13.9 96 0.3 WSW 2 7 1 4 1027.2 1027.1 0.6
28/09:52pm 14.6 14.5 13.8 95 0.4 W 7 17 4 9 1027.2 1027.1 0.4
28/09:30pm 15.0 14.8 13.7 92 0.7 SW 7 11 4 6 1027.1 1027.0 0.4
28/09:00pm 15.3 15.2 13.2 87 1.2 ENE 6 7 3 4 1026.9 1026.8 0.4
28/08:30pm 15.3 14.4 12.6 84 1.5 SE 9 13 5 7 1026.6 1026.5 0.4
28/08:00pm 15.2 16.2 13.1 87 1.2 CALM 0 0 0 0 1026.7 1026.6 0.4
28/07:30pm 15.4 16.4 13.1 86 1.3 CALM 0 0 0 0 1026.6 1026.5 0.4
28/07:00pm 15.4 15.2 12.9 85 1.4 N 6 7 3 4 1026.7 1026.6 0.4
28/06:30pm 15.6 15.1 12.0 79 1.9 WSW 6 6 3 3 1026.8 1026.7 0.4
28/06:00pm 15.7 15.0 11.9 78 2.1 WSW 7 9 4 5 1026.6 1026.5 0.4
28/05:30pm 16.1 14.5 11.7 75 2.4 WSW 11 13 6 7 1026.6 1026.5 0.4
28/05:00pm 16.6 13.8 11.5 72 2.8 SW 17 20 9 11 1026.7 1026.6 0.4
28/04:30pm 17.0 14.2 11.3 69 3.1 SW 17 20 9 11 1026.5 1026.4 0.4
28/04:00pm 17.3 15.2 11.3 68 3.2 SSW 13 17 7 9 1026.4 1026.3 0.4
28/03:30pm 17.6 15.3 11.9 69 3.1 SSW 15 19 8 10 1026.4 1026.3 0.4
28/03:00pm 17.4 16.7 13.3 77 2.3 S 9 17 5 9 1026.5 1026.4 0.4
28/02:30pm 16.7 16.2 13.8 83 1.6 SSE 9 11 5 6 1026.7 1026.6 0.4
28/02:00pm 16.3 15.1 14.1 87 1.2 SSE 13 15 7 8 1027.0 1026.9 0.4
28/01:30pm 17.4 18.0 15.9 91 0.9 SSE 7 19 4 10 1027.0 1026.9 0.4
28/01:00pm 15.6 15.8 14.8 95 0.5 E 7 9 4 5 1027.4 1027.3 0.4
28/12:42pm 15.2 15.6 15.2 100 0.0 E 7 9 4 5 1027.6 1027.5 0.4
28/12:30pm 15.0 14.9 15.0 100 0.0 ESE 9 11 5 6 1027.8 1027.7 0.4
28/12:01pm 15.2 15.0 14.7 97 0.3 SE 9 11 5 6 1028.2 1028.1 0.0
28/12:00pm 15.4 15.3 14.9 97 0.3 SE 9 11 5 6 1028.2 1028.1 0.0
28/11:37am 15.9 16.1 14.8 93 0.6 S 7 11 4 6 1028.5 1028.4 0.0
28/11:31am 16.1 16.7 14.3 89 1.0 N 4 9 2 5 1028.5 1028.4 0.0
28/11:30am 16.0 17.0 14.2 89 1.0 N 2 7 1 4 1028.5 1028.4 0.0
28/11:23am 16.4 17.5 14.6 89 1.0 NW 2 6 1 3 1028.5 1028.4 0.0
28/11:09am 16.0 17.2 13.8 87 1.2 CALM 0 6 0 3 1028.6 1028.5 0.0
28/11:00am 16.1 17.1 14.3 89 1.0 WSW 2 6 1 3 1028.6 1028.5 0.0
28/10:30am 15.3 16.1 14.8 97 0.3 E 4 9 2 5 1028.8 1028.7 0.0
28/10:28am 15.2 16.0 14.9 98 0.2 E 4 9 2 5 1028.8 1028.7 0.0
28/10:26am 15.0 15.4 14.7 98 0.2 ESE 6 9 3 5 1028.8 1028.7 0.0
28/10:12am 14.9 16.0 14.7 99 0.1 E 2 7 1 4 1028.7 1028.6 0.0
28/10:01am 14.9 15.2 14.6 98 0.2 NNE 6 7 3 4 1028.7 1028.6 0.0
28/10:00am 14.7 14.8 14.4 98 0.2 NNE 7 7 4 4 1028.7 1028.6 0.0
28/09:30am 14.9 14.4 14.9 100 0.0 ENE 11 13 6 7 1028.7 1028.6 0.0
28/09:00am 14.4 13.7 14.4 100 0.0 NNE 11 13 6 7 1028.8 1028.7 5.4
28/08:46am 13.7 12.4 13.7 100 0.0 N 13 17 7 9 1028.8 1028.7 5.4
28/08:30am 13.2 11.7 13.2 100 0.0 NNE 13 17 7 9 1028.6 1028.5 5.4
28/08:21am 13.1 12.0 13.1 100 0.0 N 11 13 6 7 1028.6 1028.5 5.4
28/08:00am 13.2 12.5 13.2 100 0.0 N 9 9 5 5 1028.4 1028.3 5.2
28/07:35am 12.9 11.7 12.9 100 0.0 NNE 11 15 6 8 1028.1 1028.0 4.8
28/07:30am 12.9 11.7 12.9 100 0.0 NNE 11 15 6 8 1028.0 1027.9 4.6
28/07:26am 13.0 11.9 13.0 100 0.0 NNE 11 15 6 8 1028.0 1027.9 4.6
28/07:04am 12.9 12.1 12.9 100 0.0 N 9 11 5 6 1027.9 1027.8 4.6
28/07:00am 13.0 12.2 13.0 100 0.0 N 9 11 5 6 1027.9 1027.8 4.6
28/06:57am 13.0 12.2 13.0 100 0.0 N 9 11 5 6 1027.8 1027.7 4.6
28/06:31am 12.9 12.1 12.9 100 0.0 N 9 11 5 6 1027.6 1027.5 4.6
28/06:30am 12.9 12.1 12.9 100 0.0 N 9 11 5 6 1027.6 1027.5 4.6
28/06:16am 12.9 12.1 12.9 100 0.0 N 9 9 5 5 1027.5 1027.4 4.6
28/06:14am 12.9 12.1 12.9 100 0.0 N 9 11 5 6 1027.5 1027.4 4.6
28/06:00am 13.0 12.6 13.0 100 0.0 N 7 11 4 6 1027.4 1027.3 4.6
28/05:30am 12.9 12.7 12.9 100 0.0 NNE 6 7 3 4 1027.2 1027.1 3.8
28/05:00am 12.9 12.7 12.9 100 0.0 NE 6 7 3 4 1027.1 1027.0 3.2
28/04:59am 12.9 12.7 12.9 100 0.0 NE 6 7 3 4 1027.1 1027.0 3.2
28/04:51am 12.8 12.3 12.8 100 0.0 NE 7 7 4 4 1027.1 1027.0 2.8
28/04:30am 12.5 11.2 12.5 100 0.0 ENE 11 13 6 7 1026.9 1026.8 2.4
28/04:00am 12.5 11.2 12.5 100 0.0 NE 11 11 6 6 1026.9 1026.8 2.4
28/03:35am 12.8 12.0 12.8 100 0.0 NNE 9 11 5 6 1026.9 1026.8 2.4
28/03:32am 12.7 11.5 12.7 100 0.0 NNE 11 13 6 7 1026.9 1026.8 2.4
28/03:30am 12.7 11.8 12.7 100 0.0 NNE 9 13 5 7 1026.9 1026.8 2.4
28/03:00am 12.8 12.5 12.8 100 0.0 NE 6 7 3 4 1027.2 1027.1 2.2
28/02:30am 12.8 12.5 12.8 100 0.0 NNE 6 9 3 5 1027.2 1027.1 1.6
28/02:18am 12.8 12.0 12.8 100 0.0 NE 9 11 5 6 1027.2 1027.1 1.2
28/02:15am 12.8 12.0 12.8 100 0.0 NE 9 11 5 6 1027.2 1027.1 1.2
28/02:00am 12.9 11.3 12.9 100 0.0 NNE 13 15 7 8 1027.2 1027.1 1.2
28/01:30am 13.1 12.0 13.1 100 0.0 NNE 11 13 6 7 1027.4 1027.3 1.0
28/01:00am 13.2 12.1 13.2 100 0.0 NNE 11 13 6 7 1027.4 1027.3 1.0
28/12:47am 13.2 12.5 13.2 100 0.0 NE 9 13 5 7 1027.4 1027.3 1.0
28/12:35am 13.2 12.1 13.2 100 0.0 NNE 11 13 6 7 1027.4 1027.3 1.0
28/12:30am 13.3 12.3 13.3 100 0.0 NNE 11 13 6 7 1027.4 1027.3 1.0
28/12:24am 13.3 12.6 13.3 100 0.0 NNE 9 13 5 7 1027.5 1027.4 1.0
28/12:00am 13.3 12.3 13.3 100 0.0 NE 11 13 6 7 1027.6 1027.5 0.8
 
Date/Time
CST
Temp
°C
App
Temp
°C
Dew
Point
°C
Rel
Hum
%
Delta-T
°C
Wind Press
QNH
hPa
Press
MSL
hPa
Rain since
9am
mm
Dir  Spd
km/h
Gust
km/h
Spd
kts
Gust
kts
27/11:43pm 13.4 12.4 13.4 100 0.0 NNE 11 13 6 7 1027.7 1027.6 0.8
27/11:30pm 13.3 12.3 13.3 100 0.0 NNE 11 13 6 7 1027.8 1027.7 0.8
27/11:00pm 13.3 12.6 13.3 100 0.0 NE 9 11 5 6 1027.8 1027.7 0.8
27/10:30pm 13.2 13.1 13.2 100 0.0 NE 6 9 3 5 1027.9 1027.8 0.6
27/10:00pm 13.1 12.7 13.1 100 0.0 NNE 7 9 4 5 1027.8 1027.7 0.6
27/09:30pm 13.0 12.6 13.0 100 0.0 NNE 7 9 4 5 1028.0 1027.9 0.6
27/09:02pm 13.1 12.3 12.8 98 0.2 N 9 9 5 5 1027.9 1027.8 0.6
27/09:00pm 13.2 12.8 12.9 98 0.2 N 7 9 4 5 1027.9 1027.8 0.6
27/08:56pm 13.3 12.9 13.0 98 0.2 NNW 7 9 4 5 1027.9 1027.8 0.6
27/08:52pm 13.4 13.0 12.9 97 0.3 NNW 7 9 4 5 1027.9 1027.8 0.6
27/08:45pm 13.6 13.4 13.0 96 0.3 NNW 6 7 3 4 1028.0 1027.9 0.6
27/08:43pm 13.6 13.7 12.8 95 0.4 N 4 7 2 4 1028.0 1027.9 0.6
27/08:31pm 13.8 14.3 12.9 94 0.5 NE 2 6 1 3 1027.9 1027.8 0.6
27/08:30pm 13.8 14.3 12.7 93 0.6 NE 2 6 1 3 1027.9 1027.8 0.6
27/08:00pm 13.6 12.9 11.3 86 1.2 SE 6 6 3 3 1027.8 1027.7 0.4
27/07:30pm 13.2 12.2 10.9 86 1.2 SSE 7 9 4 5 1027.5 1027.4 0.4
27/07:00pm 14.7 13.6 10.1 74 2.4 S 6 7 3 4 1027.5 1027.4 0.0
27/06:30pm 15.0 13.5 10.4 74 2.4 WSW 9 11 5 6 1027.3 1027.2 0.0
27/06:00pm 14.9 13.0 10.5 75 2.3 WSW 11 17 6 9 1027.2 1027.1 0.0
27/05:30pm 15.3 12.7 9.4 68 3.0 SSW 13 17 7 9 1027.1 1027.0 0.0
27/05:00pm 15.4 11.6 9.1 66 3.2 SW 19 26 10 14 1027.0 1026.9 0.0
27/04:30pm 15.6 12.6 9.3 66 3.2 S 15 20 8 11 1026.9 1026.8 0.0
27/04:00pm 15.7 10.9 8.7 63 3.6 SSW 24 32 13 17 1026.8 1026.7 0.0
27/03:30pm 16.3 12.2 8.0 58 4.2 SW 19 24 10 13 1026.8 1026.7 0.0
27/03:00pm 17.1 12.1 8.0 55 4.6 SW 24 35 13 19 1026.6 1026.5 0.0
27/02:30pm 17.2 12.4 7.3 52 4.9 SW 22 30 12 16 1026.6 1026.5 0.0
27/02:00pm 17.9 13.0 6.7 48 5.6 SW 22 30 12 16 1026.5 1026.4 0.0
27/01:30pm 17.6 13.2 7.4 51 5.1 SW 20 30 11 16 1026.5 1026.4 0.0
27/01:00pm 16.1 12.9 6.8 54 4.6 WSW 13 22 7 12 1026.9 1026.8 0.0
27/12:30pm 13.9 12.5 10.9 82 1.6 WSW 9 15 5 8 1027.6 1027.5 0.0
27/12:00pm 13.6 13.5 10.8 83 1.5 SSW 2 6 1 3 1028.2 1028.1 0.0
27/11:30am 13.2 11.4 10.7 85 1.3 S 11 15 6 8 1028.5 1028.4 0.0
27/11:00am 14.5 12.3 9.3 71 2.7 NW 11 17 6 9 1028.6 1028.5 0.0
27/10:30am 15.2 13.2 8.7 65 3.3 NW 9 13 5 7 1028.7 1028.6 0.0
27/10:00am 14.5 13.7 8.2 66 3.2 WSW 2 9 1 5 1029.0 1028.9 0.0
27/09:30am 13.2 12.5 8.5 73 2.3 NNW 2 7 1 4 1029.1 1029.0 0.0
27/09:00am 13.7 12.2 9.2 74 2.3 NNE 7 11 4 6 1028.9 1028.8 0.0
27/08:30am 11.8 10.2 8.8 82 1.5 NNE 7 9 4 5 1028.7 1028.6 0.0
27/08:00am 11.2 9.5 8.4 83 1.4 NE 7 11 4 6 1028.4 1028.3 0.0
27/07:30am 10.8 8.6 8.0 83 1.3 NNW 9 13 5 7 1027.9 1027.8 0.0
27/07:00am 10.0 7.4 7.8 86 1.1 NNE 11 13 6 7 1027.6 1027.5 0.0
27/06:30am 10.0 7.3 7.4 84 1.2 NE 11 13 6 7 1027.3 1027.2 0.0
27/06:00am 9.8 8.1 7.4 85 1.1 WNW 6 7 3 4 1027.3 1027.2 0.0
27/05:30am 9.7 7.7 7.1 84 1.2 N 7 11 4 6 1026.9 1026.8 0.0
27/05:00am 9.5 7.6 7.4 87 1.0 NNE 7 11 4 6 1026.6 1026.5 0.0
27/04:30am 8.7 5.9 6.8 88 0.9 N 11 13 6 7 1026.4 1026.3 0.0
27/04:00am 9.0 6.2 7.1 88 0.9 N 11 13 6 7 1026.1 1026.0 0.0
27/03:30am 9.0 6.2 7.1 88 0.9 N 11 13 6 7 1026.1 1026.0 0.0

Latest Capital City Observations: Canberra | Sydney | Melbourne | Brisbane | Adelaide | Perth | Hobart | Darwin

Other Formats:

Comma delimited format used in spreadsheet applications
http://www.bom.gov.au/fwo/IDS60901/IDS60901.95677.axf

JavaScript Object Notation format (JSON) in row-major order
http://www.bom.gov.au/fwo/IDS60901/IDS60901.95677.json